Time;durP1;ratioP1;P1;durP2;ratioP2;P2;SDS_P1;SDS_P2;PMS_P1;PMS_P2;Temp;Humidity;BMP_temperature;BMP_pressure;BME280_temperature;BME280_humidity;BME280_pressure;Samples;Min_cycle;Max_cycle;Signal;HPM_P1;HPM_P2
2023/09/24 00:02:04;;;;;;;;;;;24.30;57.40;;;;;;5043163;27;87029;-62
2023/09/24 00:04:30;;;;;;;;;;;24.30;57.40;;;;;;5043145;27;87559;-62
2023/09/24 00:06:56;;;;;;;;;;;24.30;57.50;;;;;;5042899;27;88147;-62
2023/09/24 00:09:21;;;;;;;;;;;24.30;57.50;;;;;;5043988;28;86490;-62
2023/09/24 00:11:47;;;;;;;;;;;24.30;57.50;;;;;;5043607;27;87030;-62
2023/09/24 00:14:14;;;;;;;;;;;24.30;57.60;;;;;;5043174;27;88185;-62
2023/09/24 00:16:40;;;;;;;;;;;24.30;57.60;;;;;;5045715;28;88095;-62
2023/09/24 00:19:06;;;;;;;;;;;24.20;57.50;;;;;;5042551;28;88201;-62
2023/09/24 00:21:31;;;;;;;;;;;24.20;57.50;;;;;;5043160;27;89023;-62
2023/09/24 00:23:57;;;;;;;;;;;24.20;57.60;;;;;;5039616;28;87609;-62
2023/09/24 00:26:25;;;;;;;;;;;24.20;57.60;;;;;;5043068;28;88367;-62
2023/09/24 00:28:50;;;;;;;;;;;24.20;57.60;;;;;;5042979;27;87007;-62
2023/09/24 00:31:16;;;;;;;;;;;24.20;57.60;;;;;;5043331;28;87541;-62
2023/09/24 00:33:41;;;;;;;;;;;24.20;57.60;;;;;;5042874;27;87331;-62
2023/09/24 00:36:07;;;;;;;;;;;24.20;57.60;;;;;;5042811;28;87536;-62
2023/09/24 00:38:33;;;;;;;;;;;24.10;57.60;;;;;;5045685;28;87676;-62
2023/09/24 00:40:58;;;;;;;;;;;24.10;57.60;;;;;;5042653;28;88086;-62
2023/09/24 00:43:32;;;;;;;;;;;24.10;57.00;;;;;;5042929;28;87425;-62
2023/09/24 00:45:59;;;;;;;;;;;24.10;57.70;;;;;;5042812;27;88616;-62
2023/09/24 00:48:30;;;;;;;;;;;24.10;57.60;;;;;;5042432;27;87005;-62
2023/09/24 00:50:57;;;;;;;;;;;24.10;57.60;;;;;;5039293;27;87569;-62
2023/09/24 00:53:27;;;;;;;;;;;24.10;57.60;;;;;;5042567;27;87827;-62
2023/09/24 00:55:53;;;;;;;;;;;24.10;57.70;;;;;;5042892;27;87357;-62
2023/09/24 00:58:19;;;;;;;;;;;24.10;57.70;;;;;;5043337;28;87989;-62
2023/09/24 01:00:46;;;;;;;;;;;24.10;57.60;;;;;;5044163;28;88134;-62
2023/09/24 01:03:12;;;;;;;;;;;24.00;57.70;;;;;;5038623;28;87909;-62
2023/09/24 01:05:38;;;;;;;;;;;24.00;57.70;;;;;;5041294;27;89060;-62
2023/09/24 01:08:04;;;;;;;;;;;24.00;57.60;;;;;;5042156;28;87220;-62
2023/09/24 01:10:30;;;;;;;;;;;24.00;57.70;;;;;;5042702;27;87601;-62
2023/09/24 01:12:59;;;;;;;;;;;24.00;57.70;;;;;;5042358;28;87956;-62
2023/09/24 01:15:25;;;;;;;;;;;24.00;57.70;;;;;;5042294;27;87202;-62
2023/09/24 01:17:52;;;;;;;;;;;24.00;57.70;;;;;;5042525;27;87543;-62
2023/09/24 01:20:22;;;;;;;;;;;24.00;57.70;;;;;;5041690;28;88098;-62
2023/09/24 01:22:49;;;;;;;;;;;23.90;57.70;;;;;;5045473;27;86260;-63
2023/09/24 01:25:14;;;;;;;;;;;23.90;57.70;;;;;;5041920;28;88224;-62
2023/09/24 01:27:40;;;;;;;;;;;23.90;57.70;;;;;;5042380;28;87740;-62
2023/09/24 01:30:06;;;;;;;;;;;23.90;57.70;;;;;;5040352;28;90814;-62
2023/09/24 01:32:32;;;;;;;;;;;23.90;57.70;;;;;;5040544;28;91068;-62
2023/09/24 01:34:58;;;;;;;;;;;23.90;57.70;;;;;;5041698;27;87289;-62
2023/09/24 01:37:23;;;;;;;;;;;23.90;57.70;;;;;;5042005;27;87847;-62
2023/09/24 01:39:51;;;;;;;;;;;23.90;57.70;;;;;;5041866;27;88364;-62
2023/09/24 01:42:16;;;;;;;;;;;23.90;57.70;;;;;;5045150;27;87119;-62
2023/09/24 01:44:42;;;;;;;;;;;23.90;57.70;;;;;;5041549;28;89249;-62
2023/09/24 01:47:07;;;;;;;;;;;23.80;57.70;;;;;;5042524;27;86398;-62
2023/09/24 01:49:33;;;;;;;;;;;23.80;57.20;;;;;;5041289;28;86988;-62
2023/09/24 01:51:59;;;;;;;;;;;23.80;57.70;;;;;;5041433;27;88442;-62
2023/09/24 01:54:25;;;;;;;;;;;23.80;57.70;;;;;;5041500;27;88051;-62
2023/09/24 01:56:52;;;;;;;;;;;23.80;57.70;;;;;;5042019;28;88413;-62
2023/09/24 01:59:17;;;;;;;;;;;23.70;57.70;;;;;;5041684;28;88354;-62
2023/09/24 02:01:45;;;;;;;;;;;23.80;57.80;;;;;;5041602;28;87208;-62
2023/09/24 02:04:11;;;;;;;;;;;23.80;57.80;;;;;;5043117;28;90381;-62
2023/09/24 02:06:37;;;;;;;;;;;23.70;57.90;;;;;;5041630;28;87818;-62
2023/09/24 02:09:03;;;;;;;;;;;23.70;57.90;;;;;;5041263;27;87177;-62
2023/09/24 02:11:28;;;;;;;;;;;23.70;57.90;;;;;;5040601;27;87895;-62
2023/09/24 02:13:54;;;;;;;;;;;23.70;57.90;;;;;;5044971;28;87179;-62
2023/09/24 02:16:19;;;;;;;;;;;23.70;57.90;;;;;;5045330;28;87282;-62
2023/09/24 02:18:46;;;;;;;;;;;23.70;57.90;;;;;;5044361;27;89065;-62
2023/09/24 02:21:14;;;;;;;;;;;23.70;57.90;;;;;;5044854;28;87250;-62
2023/09/24 02:23:42;;;;;;;;;;;23.70;57.90;;;;;;5044924;27;87718;-62
2023/09/24 02:26:13;;;;;;;;;;;23.60;57.80;;;;;;5047750;28;88166;-62
2023/09/24 02:28:39;;;;;;;;;;;23.60;57.80;;;;;;5045026;27;88998;-62
2023/09/24 02:31:11;;;;;;;;;;;23.60;57.80;;;;;;5044892;28;87421;-62
2023/09/24 02:33:36;;;;;;;;;;;23.60;57.80;;;;;;5045031;27;87113;-62
2023/09/24 02:36:02;;;;;;;;;;;23.60;57.90;;;;;;5045201;28;87640;-62
2023/09/24 02:38:28;;;;;;;;;;;23.60;57.80;;;;;;5043881;27;89330;-62
2023/09/24 02:40:55;;;;;;;;;;;23.60;57.80;;;;;;5043393;28;87267;-62
2023/09/24 02:43:22;;;;;;;;;;;23.60;57.90;;;;;;5040493;28;88225;-61
2023/09/24 02:45:48;;;;;;;;;;;23.60;57.90;;;;;;5044164;27;87183;-62
2023/09/24 02:48:14;;;;;;;;;;;23.50;57.80;;;;;;5047748;28;87166;-62
2023/09/24 02:50:40;;;;;;;;;;;23.50;57.90;;;;;;5044143;27;88211;-61
2023/09/24 02:53:07;;;;;;;;;;;23.50;57.90;;;;;;5044495;27;87052;-62
2023/09/24 02:55:33;;;;;;;;;;;23.50;58.00;;;;;;5044705;27;87702;-62
2023/09/24 02:57:59;;;;;;;;;;;23.50;58.00;;;;;;5040167;28;88527;-62
2023/09/24 03:00:36;;;;;;;;;;;23.50;58.00;;;;;;5045255;27;86376;-62
2023/09/24 03:03:05;;;;;;;;;;;23.50;58.00;;;;;;5044710;27;87351;-62
2023/09/24 03:05:31;;;;;;;;;;;23.50;58.00;;;;;;5043888;27;87155;-62
2023/09/24 03:08:00;;;;;;;;;;;23.40;58.60;;;;;;5043542;28;89736;-61
2023/09/24 03:10:26;;;;;;;;;;;23.40;58.00;;;;;;5046610;28;89602;-62
2023/09/24 03:12:52;;;;;;;;;;;23.40;58.00;;;;;;5044407;28;87122;-62
2023/09/24 03:15:19;;;;;;;;;;;23.40;58.00;;;;;;5044634;28;87648;-62
2023/09/24 03:17:48;;;;;;;;;;;23.40;58.10;;;;;;5042510;28;91675;-62
2023/09/24 03:20:23;;;;;;;;;;;23.30;58.00;;;;;;5040813;28;87126;-62
2023/09/24 03:22:50;;;;;;;;;;;23.30;58.00;;;;;;5043970;27;87593;-62
2023/09/24 03:25:19;;;;;;;;;;;23.30;58.00;;;;;;5042872;28;87373;-62
2023/09/24 03:27:49;;;;;;;;;;;23.30;58.00;;;;;;5040386;28;87023;-62
2023/09/24 03:30:17;;;;;;;;;;;23.30;58.10;;;;;;5046643;27;87532;-62
2023/09/24 03:32:46;;;;;;;;;;;23.30;58.10;;;;;;5043690;27;87930;-62
2023/09/24 03:35:12;;;;;;;;;;;23.30;58.10;;;;;;5044321;27;88860;-62
2023/09/24 03:37:40;;;;;;;;;;;23.30;58.10;;;;;;5042994;27;87989;-62
2023/09/24 03:40:10;;;;;;;;;;;23.30;58.10;;;;;;5043738;27;87131;-58
2023/09/24 03:42:36;;;;;;;;;;;23.30;58.20;;;;;;5043965;27;87636;-62
2023/09/24 03:45:02;;;;;;;;;;;23.20;57.60;;;;;;5043320;27;88332;-62
2023/09/24 03:47:28;;;;;;;;;;;23.20;58.10;;;;;;5044088;28;87421;-62
2023/09/24 03:49:53;;;;;;;;;;;23.20;58.10;;;;;;5044385;28;87703;-62
2023/09/24 03:52:19;;;;;;;;;;;23.20;58.20;;;;;;5042058;28;88758;-62
2023/09/24 03:54:44;;;;;;;;;;;23.20;58.20;;;;;;5043745;27;87414;-62
2023/09/24 03:57:10;;;;;;;;;;;23.20;58.20;;;;;;5042822;28;89487;-62
2023/09/24 03:59:36;;;;;;;;;;;23.20;58.10;;;;;;5043634;28;87156;-62
2023/09/24 04:02:02;;;;;;;;;;;23.20;58.80;;;;;;5043011;27;87929;-62
2023/09/24 04:04:27;;;;;;;;;;;23.10;57.60;;;;;;5041860;28;91020;-61
2023/09/24 04:06:53;;;;;;;;;;;23.10;57.70;;;;;;5043299;27;88721;-62
2023/09/24 04:09:19;;;;;;;;;;;23.10;57.70;;;;;;5043193;27;87082;-61
2023/09/24 04:11:46;;;;;;;;;;;23.10;58.20;;;;;;5043416;28;87540;-62
2023/09/24 04:14:11;;;;;;;;;;;23.00;57.70;;;;;;5046931;28;86413;-62
2023/09/24 04:16:37;;;;;;;;;;;23.10;58.30;;;;;;5041451;27;88882;-62
2023/09/24 04:19:03;;;;;;;;;;;23.10;58.30;;;;;;5041244;27;87261;-62
2023/09/24 04:21:29;;;;;;;;;;;23.00;58.20;;;;;;5042132;28;88043;-62
2023/09/24 04:23:54;;;;;;;;;;;23.00;58.30;;;;;;5042968;28;88560;-62
2023/09/24 04:26:21;;;;;;;;;;;23.00;58.20;;;;;;5041217;27;87715;-62
2023/09/24 04:28:46;;;;;;;;;;;23.00;58.30;;;;;;5041459;27;87359;-62
2023/09/24 04:31:12;;;;;;;;;;;23.00;58.30;;;;;;5042925;27;88219;-62
2023/09/24 04:33:37;;;;;;;;;;;23.00;58.30;;;;;;5042695;27;87016;-61
2023/09/24 04:36:05;;;;;;;;;;;23.00;58.30;;;;;;5043556;27;87621;-62
2023/09/24 04:38:30;;;;;;;;;;;23.00;58.30;;;;;;5042433;27;87120;-62
2023/09/24 04:40:57;;;;;;;;;;;22.90;58.30;;;;;;5043252;27;87151;-62
2023/09/24 04:43:22;;;;;;;;;;;22.90;58.20;;;;;;5041488;27;87487;-62
2023/09/24 04:45:48;;;;;;;;;;;22.90;58.30;;;;;;5039971;27;88170;-62
2023/09/24 04:48:13;;;;;;;;;;;22.90;58.30;;;;;;5038289;27;88830;-62
2023/09/24 04:50:39;;;;;;;;;;;22.90;58.30;;;;;;5042595;27;88114;-62
2023/09/24 04:53:06;;;;;;;;;;;22.90;58.30;;;;;;5044780;27;87457;-62
2023/09/24 04:55:32;;;;;;;;;;;22.80;58.30;;;;;;5039695;27;87845;-62
2023/09/24 04:57:58;;;;;;;;;;;22.80;58.30;;;;;;5045319;27;88167;-62
2023/09/24 05:00:24;;;;;;;;;;;22.80;57.70;;;;;;5042808;27;87739;-62
2023/09/24 05:02:49;;;;;;;;;;;22.90;58.30;;;;;;5040435;27;87736;-62
2023/09/24 05:05:15;;;;;;;;;;;22.80;58.30;;;;;;5041921;27;88820;-62
2023/09/24 05:07:41;;;;;;;;;;;22.80;58.40;;;;;;5041990;27;87641;-62
2023/09/24 05:10:07;;;;;;;;;;;22.80;58.30;;;;;;5041315;27;89425;-62
2023/09/24 05:12:33;;;;;;;;;;;22.80;58.30;;;;;;5040334;27;87300;-61
2023/09/24 05:14:59;;;;;;;;;;;22.80;58.30;;;;;;5042533;27;87962;-62
2023/09/24 05:17:24;;;;;;;;;;;22.80;58.30;;;;;;5042226;27;88156;-62
2023/09/24 05:19:50;;;;;;;;;;;22.80;58.30;;;;;;5044175;27;88182;-62
2023/09/24 05:22:16;;;;;;;;;;;22.80;58.30;;;;;;5036786;27;89941;-62
2023/09/24 05:24:42;;;;;;;;;;;22.80;58.40;;;;;;5041738;28;87008;-62
2023/09/24 05:27:07;;;;;;;;;;;22.80;58.40;;;;;;5043063;28;87735;-62
2023/09/24 05:29:33;;;;;;;;;;;22.80;58.30;;;;;;5040059;27;88073;-62
2023/09/24 05:32:00;;;;;;;;;;;22.80;58.30;;;;;;5042519;27;88987;-62
2023/09/24 05:34:26;;;;;;;;;;;22.70;58.30;;;;;;5041716;27;87994;-62
2023/09/24 05:36:51;;;;;;;;;;;22.70;58.30;;;;;;5041116;28;88633;-61
2023/09/24 05:39:17;;;;;;;;;;;22.70;58.30;;;;;;5044336;27;87238;-62
2023/09/24 05:41:43;;;;;;;;;;;22.70;58.30;;;;;;5039736;27;88676;-62
2023/09/24 05:44:08;;;;;;;;;;;22.70;58.30;;;;;;5042236;27;87153;-62
2023/09/24 05:46:34;;;;;;;;;;;22.70;58.40;;;;;;5040400;27;88051;-62
2023/09/24 05:49:00;;;;;;;;;;;22.70;58.40;;;;;;5042814;27;87466;-62
2023/09/24 05:51:25;;;;;;;;;;;22.70;58.40;;;;;;5048755;27;86691;-62
2023/09/24 05:53:52;;;;;;;;;;;22.70;58.40;;;;;;5044929;27;87108;-62
2023/09/24 05:56:18;;;;;;;;;;;22.60;58.40;;;;;;5043703;27;89346;-62
2023/09/24 05:58:43;;;;;;;;;;;22.60;58.50;;;;;;5043042;27;89106;-62
2023/09/24 06:01:15;;;;;;;;;;;22.60;59.00;;;;;;5047147;28;88125;-62
2023/09/24 06:03:41;;;;;;;;;;;22.70;58.50;;;;;;5041913;28;87060;-62
2023/09/24 06:06:08;;;;;;;;;;;22.60;59.00;;;;;;5043513;27;87888;-62
2023/09/24 06:08:34;;;;;;;;;;;22.70;58.40;;;;;;5040135;27;88198;-62
2023/09/24 06:10:59;;;;;;;;;;;22.60;58.50;;;;;;5045567;28;87285;-62
2023/09/24 06:13:25;;;;;;;;;;;22.60;58.50;;;;;;5045182;27;87371;-62
2023/09/24 06:15:57;;;;;;;;;;;22.60;58.50;;;;;;5043377;27;86891;-62
2023/09/24 06:18:23;;;;;;;;;;;22.60;58.50;;;;;;5042783;27;87130;-62
2023/09/24 06:20:48;;;;;;;;;;;22.60;58.50;;;;;;5045221;27;87697;-62
2023/09/24 06:23:14;;;;;;;;;;;22.60;59.10;;;;;;5044964;28;88879;-62
2023/09/24 06:25:39;;;;;;;;;;;22.60;58.50;;;;;;5042821;27;88648;-62
2023/09/24 06:28:09;;;;;;;;;;;22.60;58.60;;;;;;5044217;27;88240;-62
2023/09/24 06:30:35;;;;;;;;;;;22.60;58.60;;;;;;5044821;27;87066;-62
2023/09/24 06:33:01;;;;;;;;;;;22.60;58.60;;;;;;5043493;27;87852;-62
2023/09/24 06:35:26;;;;;;;;;;;22.60;58.50;;;;;;5042281;27;88942;-62
2023/09/24 06:37:52;;;;;;;;;;;22.60;58.60;;;;;;5044272;28;87239;-61
2023/09/24 06:40:18;;;;;;;;;;;22.60;58.60;;;;;;5045372;28;87689;-62
2023/09/24 06:42:45;;;;;;;;;;;22.60;58.60;;;;;;5042823;27;87826;-62
2023/09/24 06:45:11;;;;;;;;;;;22.60;58.60;;;;;;5043312;27;86920;-62
2023/09/24 06:47:37;;;;;;;;;;;22.60;58.70;;;;;;5043722;28;88341;-62
2023/09/24 06:50:02;;;;;;;;;;;22.60;58.70;;;;;;5044416;27;87108;-62
2023/09/24 06:52:32;;;;;;;;;;;22.60;58.70;;;;;;5042228;27;87579;-62
2023/09/24 06:54:58;;;;;;;;;;;22.60;58.60;;;;;;5041027;27;87481;-62
2023/09/24 06:57:24;;;;;;;;;;;22.60;58.70;;;;;;5043332;28;87159;-62
2023/09/24 06:59:49;;;;;;;;;;;22.60;58.80;;;;;;5043872;27;87722;-62
2023/09/24 07:02:15;;;;;;;;;;;22.60;58.70;;;;;;5040673;27;88184;-62
2023/09/24 07:04:40;;;;;;;;;;;22.60;58.70;;;;;;5041554;28;86487;-62
2023/09/24 07:07:09;;;;;;;;;;;22.60;58.70;;;;;;5047407;28;87100;-62
2023/09/24 07:09:34;;;;;;;;;;;22.60;58.80;;;;;;5042656;27;87482;-62
2023/09/24 07:12:00;;;;;;;;;;;22.60;58.80;;;;;;5041693;27;88589;-62
2023/09/24 07:14:25;;;;;;;;;;;22.60;58.80;;;;;;5037797;27;89235;-62
2023/09/24 07:16:51;;;;;;;;;;;22.60;58.90;;;;;;5044493;28;86923;-62
2023/09/24 07:19:18;;;;;;;;;;;22.60;58.80;;;;;;5039984;27;87851;-62
2023/09/24 07:21:45;;;;;;;;;;;22.60;58.90;;;;;;5038947;27;89568;-62
2023/09/24 07:24:11;;;;;;;;;;;22.60;58.90;;;;;;5042190;27;87248;-62
2023/09/24 07:26:37;;;;;;;;;;;22.60;58.90;;;;;;5044356;27;87866;-62
2023/09/24 07:29:02;;;;;;;;;;;22.50;58.90;;;;;;5045180;27;87645;-61
2023/09/24 07:31:29;;;;;;;;;;;22.60;58.90;;;;;;5041917;27;87348;-62
2023/09/24 07:33:55;;;;;;;;;;;22.60;59.00;;;;;;5039956;28;88657;-62
2023/09/24 07:36:21;;;;;;;;;;;22.60;59.00;;;;;;5043033;27;88073;-62
2023/09/24 07:38:49;;;;;;;;;;;22.60;59.00;;;;;;5042204;27;88459;-62
2023/09/24 07:41:15;;;;;;;;;;;22.60;59.00;;;;;;5044848;27;88471;-62
2023/09/24 07:43:44;;;;;;;;;;;22.50;59.00;;;;;;5044142;28;86907;-62
2023/09/24 07:46:12;;;;;;;;;;;22.60;59.10;;;;;;5043423;28;88015;-61
2023/09/24 07:48:38;;;;;;;;;;;22.50;59.00;;;;;;5043867;27;88115;-62
2023/09/24 07:51:04;;;;;;;;;;;22.60;59.10;;;;;;5042239;27;87783;-62
2023/09/24 07:53:29;;;;;;;;;;;22.60;59.20;;;;;;5043483;28;87594;-62
2023/09/24 07:55:55;;;;;;;;;;;22.50;59.20;;;;;;5042740;27;87011;-62
2023/09/24 07:58:22;;;;;;;;;;;22.50;59.20;;;;;;5042144;27;87818;-62
2023/09/24 08:00:47;;;;;;;;;;;22.60;59.20;;;;;;5041508;27;89083;-62
2023/09/24 08:03:13;;;;;;;;;;;22.60;59.20;;;;;;5043085;28;87315;-61
2023/09/24 08:05:39;;;;;;;;;;;22.60;59.20;;;;;;5042134;27;87776;-62
2023/09/24 08:08:05;;;;;;;;;;;22.60;59.20;;;;;;5043151;27;88379;-62
2023/09/24 08:10:31;;;;;;;;;;;22.60;59.40;;;;;;5044988;27;87282;-62
2023/09/24 08:12:56;;;;;;;;;;;22.60;59.30;;;;;;5043271;28;88525;-62
2023/09/24 08:15:22;;;;;;;;;;;22.60;59.40;;;;;;5041166;27;88344;-62
2023/09/24 08:17:48;;;;;;;;;;;22.60;59.30;;;;;;5037952;27;87293;-62
2023/09/24 08:20:13;;;;;;;;;;;22.60;59.40;;;;;;5043064;27;88110;-62
2023/09/24 08:22:39;;;;;;;;;;;22.60;59.40;;;;;;5043017;28;87117;-62
2023/09/24 08:25:05;;;;;;;;;;;22.60;59.40;;;;;;5039984;27;88986;-62
2023/09/24 08:27:31;;;;;;;;;;;22.60;60.00;;;;;;5043152;27;88276;-62
2023/09/24 08:29:56;;;;;;;;;;;22.50;59.40;;;;;;5043241;28;87129;-62
2023/09/24 08:32:23;;;;;;;;;;;22.50;59.50;;;;;;5046993;27;87801;-62
2023/09/24 08:34:49;;;;;;;;;;;22.50;59.50;;;;;;5040959;27;87065;-62
2023/09/24 08:37:15;;;;;;;;;;;22.50;59.50;;;;;;5042648;28;87610;-62
2023/09/24 08:39:40;;;;;;;;;;;22.60;59.60;;;;;;5042349;27;87244;-62
2023/09/24 08:42:08;;;;;;;;;;;22.50;59.50;;;;;;5042612;27;87290;-62
2023/09/24 08:44:36;;;;;;;;;;;22.60;59.50;;;;;;5038003;27;89308;-62
2023/09/24 08:47:01;;;;;;;;;;;22.60;59.60;;;;;;5042509;27;88342;-62
2023/09/24 08:49:27;;;;;;;;;;;22.60;59.60;;;;;;5041366;27;88498;-62
2023/09/24 08:51:54;;;;;;;;;;;22.60;59.60;;;;;;5040692;27;88554;-62
2023/09/24 08:54:20;;;;;;;;;;;22.60;59.60;;;;;;5041343;27;88069;-62
2023/09/24 08:56:46;;;;;;;;;;;22.60;59.60;;;;;;5042754;28;87217;-62
2023/09/24 08:59:11;;;;;;;;;;;22.60;59.60;;;;;;5040873;27;88338;-62
2023/09/24 09:01:37;;;;;;;;;;;22.60;59.50;;;;;;5040229;27;87665;-62
2023/09/24 09:04:03;;;;;;;;;;;22.60;59.50;;;;;;5040603;28;87720;-62
2023/09/24 09:06:32;;;;;;;;;;;22.60;59.50;;;;;;5042869;28;87567;-62
2023/09/24 09:08:58;;;;;;;;;;;22.60;59.50;;;;;;5040199;27;87678;-62
2023/09/24 09:11:37;;;;;;;;;;;22.60;59.50;;;;;;5040039;27;87925;-62
2023/09/24 09:14:02;;;;;;;;;;;22.60;59.50;;;;;;5041773;27;88213;-62
2023/09/24 09:16:28;;;;;;;;;;;22.60;59.50;;;;;;5044759;27;87159;-62
2023/09/24 09:19:03;;;;;;;;;;;22.60;59.50;;;;;;5040076;27;88641;-62
2023/09/24 09:21:29;;;;;;;;;;;22.60;59.50;;;;;;5037029;27;87004;-62
2023/09/24 09:23:55;;;;;;;;;;;22.60;59.60;;;;;;5042293;27;87513;-62
2023/09/24 09:26:30;;;;;;;;;;;22.60;59.50;;;;;;5040428;27;88316;-62
2023/09/24 09:28:56;;;;;;;;;;;22.70;59.60;;;;;;5043660;27;88322;-62
2023/09/24 09:31:21;;;;;;;;;;;22.60;59.50;;;;;;5039950;27;87999;-62
2023/09/24 09:33:47;;;;;;;;;;;22.60;59.50;;;;;;5042113;28;88261;-62
2023/09/24 09:36:19;;;;;;;;;;;22.70;59.60;;;;;;5039826;27;87390;-62
2023/09/24 09:38:45;;;;;;;;;;;22.70;59.60;;;;;;5038658;27;88003;-62
2023/09/24 09:41:11;;;;;;;;;;;22.70;59.60;;;;;;5041860;27;88735;-62
2023/09/24 09:43:37;;;;;;;;;;;22.70;59.70;;;;;;5041889;27;87897;-62
2023/09/24 09:46:06;;;;;;;;;;;22.70;59.60;;;;;;5039915;27;88380;-62
2023/09/24 09:48:33;;;;;;;;;;;22.70;59.60;;;;;;5039896;27;87283;-62
2023/09/24 09:51:05;;;;;;;;;;;22.70;59.60;;;;;;5042164;28;87648;-62
2023/09/24 09:53:35;;;;;;;;;;;22.70;59.60;;;;;;5039459;27;88223;-60
2023/09/24 09:56:01;;;;;;;;;;;22.70;60.90;;;;;;5040491;27;86559;-61
2023/09/24 09:58:29;;;;;;;;;;;22.60;61.30;;;;;;5041035;27;87012;-62
2023/09/24 10:00:54;;;;;;;;;;;22.70;62.00;;;;;;5041591;28;87203;-62
2023/09/24 10:03:20;;;;;;;;;;;22.70;61.20;;;;;;5039271;27;88544;-61
2023/09/24 10:05:48;;;;;;;;;;;22.70;61.60;;;;;;5044148;27;88423;-62
2023/09/24 10:08:33;;;;;;;;;;;22.80;61.20;;;;;;5041941;27;87822;-61
2023/09/24 10:10:58;;;;;;;;;;;22.80;60.80;;;;;;5038574;27;87605;-59
2023/09/24 10:13:43;;;;;;;;;;;22.80;61.00;;;;;;5038995;27;88457;-60
2023/09/24 10:16:35;;;;;;;;;;;22.90;60.80;;;;;;5040368;27;87321;-54
2023/09/24 10:19:08;;;;;;;;;;;23.00;61.10;;;;;;5039437;28;88087;-63
2023/09/24 10:21:33;;;;;;;;;;;23.00;60.20;;;;;;5042162;27;87617;-64
2023/09/24 10:24:20;;;;;;;;;;;23.10;59.30;;;;;;5036285;27;87319;-64
2023/09/24 10:26:45;;;;;;;;;;;23.10;60.10;;;;;;5040611;28;88556;-59
2023/09/24 10:29:11;;;;;;;;;;;23.10;60.10;;;;;;5040573;27;88331;-63
2023/09/24 10:31:56;;;;;;;;;;;23.10;59.40;;;;;;5041280;27;88328;-63
2023/09/24 10:34:22;;;;;;;;;;;23.10;59.10;;;;;;5042619;27;88270;-62
2023/09/24 10:37:07;;;;;;;;;;;23.10;58.80;;;;;;5045005;28;87111;-61
2023/09/24 10:39:33;;;;;;;;;;;23.10;58.60;;;;;;5045513;27;87921;-62
2023/09/24 10:42:11;;;;;;;;;;;23.10;58.90;;;;;;5041984;27;88280;-63
2023/09/24 10:44:37;;;;;;;;;;;23.10;58.90;;;;;;5046308;28;87168;-61
2023/09/24 10:47:21;;;;;;;;;;;23.20;59.70;;;;;;5042665;28;90220;-63
2023/09/24 10:49:47;;;;;;;;;;;23.20;59.10;;;;;;5042542;27;89042;-65
2023/09/24 10:52:12;;;;;;;;;;;23.20;59.10;;;;;;5043428;27;88093;-63
2023/09/24 10:54:38;;;;;;;;;;;23.20;59.80;;;;;;5043672;28;89371;-64
2023/09/24 10:57:03;;;;;;;;;;;23.20;59.20;;;;;;5042850;27;88442;-62
2023/09/24 10:59:33;;;;;;;;;;;23.20;59.40;;;;;;5042426;27;88008;-64
2023/09/24 11:02:13;;;;;;;;;;;23.20;59.90;;;;;;5041009;27;87839;-64
2023/09/24 11:04:39;;;;;;;;;;;23.30;60.20;;;;;;5041027;28;86981;-64
2023/09/24 11:07:08;;;;;;;;;;;23.30;60.50;;;;;;5045038;27;87649;-64
2023/09/24 11:09:34;;;;;;;;;;;23.30;60.40;;;;;;5041842;27;88929;-62
2023/09/24 11:12:00;;;;;;;;;;;23.40;60.80;;;;;;5044572;27;87912;-62
2023/09/24 11:14:26;;;;;;;;;;;23.40;61.90;;;;;;5043751;27;87920;-63
2023/09/24 11:16:55;;;;;;;;;;;23.40;61.10;;;;;;5041991;27;87192;-63
2023/09/24 11:19:39;;;;;;;;;;;23.40;61.40;;;;;;5036528;27;88528;-63
2023/09/24 11:22:21;;;;;;;;;;;23.50;61.10;;;;;;5043890;28;88292;-59
2023/09/24 11:24:50;;;;;;;;;;;23.60;61.00;;;;;;5040823;28;87148;-61
2023/09/24 11:27:17;;;;;;;;;;;23.60;61.70;;;;;;5040363;27;87910;-62
2023/09/24 11:29:55;;;;;;;;;;;23.70;61.40;;;;;;5046506;27;88502;-61
2023/09/24 11:32:25;;;;;;;;;;;23.70;61.00;;;;;;5043532;27;87542;-62
2023/09/24 11:35:04;;;;;;;;;;;23.80;60.70;;;;;;5041117;27;88117;-61
2023/09/24 11:37:29;;;;;;;;;;;23.80;60.70;;;;;;5039990;27;88233;-62
2023/09/24 11:39:55;;;;;;;;;;;23.70;61.20;;;;;;5044205;28;87581;-62
2023/09/24 11:42:20;;;;;;;;;;;23.60;61.20;;;;;;5044606;27;88384;-60
2023/09/24 11:44:46;;;;;;;;;;;23.60;61.20;;;;;;5042994;27;88824;-62
2023/09/24 11:47:12;;;;;;;;;;;23.70;61.80;;;;;;5040333;27;88688;-63
2023/09/24 11:49:37;;;;;;;;;;;23.70;61.50;;;;;;5043252;28;88429;-63
2023/09/24 11:52:12;;;;;;;;;;;23.70;61.60;;;;;;5043559;27;87257;-63
2023/09/24 11:54:37;;;;;;;;;;;23.70;61.60;;;;;;5041766;27;88799;-65
2023/09/24 11:57:03;;;;;;;;;;;23.70;60.90;;;;;;5041634;28;87379;-65
2023/09/24 11:59:31;;;;;;;;;;;23.70;60.80;;;;;;5043367;28;87088;-62
2023/09/24 12:01:56;;;;;;;;;;;23.70;61.30;;;;;;5044759;27;87496;-64
2023/09/24 12:04:22;;;;;;;;;;;23.70;61.40;;;;;;5039791;27;87187;-64
2023/09/24 12:06:47;;;;;;;;;;;23.80;61.10;;;;;;5041893;28;87663;-63
2023/09/24 12:09:13;;;;;;;;;;;23.80;60.60;;;;;;5042577;28;88228;-63
2023/09/24 12:11:39;;;;;;;;;;;23.80;60.30;;;;;;5043622;27;87348;-63
2023/09/24 12:14:04;;;;;;;;;;;23.80;60.30;;;;;;5040913;27;87796;-61
2023/09/24 12:16:30;;;;;;;;;;;23.80;60.30;;;;;;5043236;27;87034;-63
2023/09/24 12:18:55;;;;;;;;;;;23.80;60.60;;;;;;5042696;27;87498;-62
2023/09/24 12:21:21;;;;;;;;;;;23.80;60.50;;;;;;5044582;27;88190;-58
2023/09/24 12:23:46;;;;;;;;;;;23.80;60.50;;;;;;5042077;27;88112;-64
2023/09/24 12:26:12;;;;;;;;;;;23.90;60.40;;;;;;5043376;27;87399;-64
2023/09/24 12:28:37;;;;;;;;;;;23.90;60.10;;;;;;5041485;27;87293;-55
2023/09/24 12:31:03;;;;;;;;;;;23.90;61.30;;;;;;5040925;27;88255;-56
2023/09/24 12:33:28;;;;;;;;;;;23.80;61.60;;;;;;5044075;28;88794;-61
2023/09/24 12:35:54;;;;;;;;;;;23.90;60.80;;;;;;5043133;27;87166;-50
2023/09/24 12:38:20;;;;;;;;;;;23.80;61.40;;;;;;5043097;27;87527;-59
2023/09/24 12:40:47;;;;;;;;;;;23.90;61.30;;;;;;5039677;27;87788;-58
2023/09/24 12:43:12;;;;;;;;;;;24.00;61.80;;;;;;5042845;27;87098;-61
2023/09/24 12:45:38;;;;;;;;;;;24.10;61.10;;;;;;5042539;28;87264;-59
2023/09/24 12:48:04;;;;;;;;;;;24.10;61.80;;;;;;5040167;27;88937;-66
2023/09/24 12:50:29;;;;;;;;;;;24.00;60.60;;;;;;5037822;27;86468;-65
2023/09/24 12:52:55;;;;;;;;;;;24.10;60.30;;;;;;5042975;27;87039;-66
2023/09/24 12:55:21;;;;;;;;;;;24.00;60.10;;;;;;5044225;27;88235;-62
2023/09/24 12:57:46;;;;;;;;;;;24.00;61.30;;;;;;5043751;27;89010;-55
2023/09/24 13:00:13;;;;;;;;;;;24.00;60.20;;;;;;5040999;27;88140;-61
2023/09/24 13:02:41;;;;;;;;;;;24.10;60.80;;;;;;5040515;28;87252;-61
2023/09/24 13:05:06;;;;;;;;;;;24.10;61.00;;;;;;5040953;27;87905;-63
2023/09/24 13:07:32;;;;;;;;;;;24.30;60.00;;;;;;5041229;27;88842;-63
2023/09/24 13:09:58;;;;;;;;;;;24.30;59.90;;;;;;5041462;28;87202;-63
2023/09/24 13:12:23;;;;;;;;;;;24.30;59.80;;;;;;5042143;27;87581;-64
2023/09/24 13:14:49;;;;;;;;;;;24.30;59.80;;;;;;5040709;27;87509;-64
2023/09/24 13:17:14;;;;;;;;;;;24.20;59.90;;;;;;5041256;27;87435;-68
2023/09/24 13:19:40;;;;;;;;;;;24.20;60.20;;;;;;5041263;28;88232;-65
2023/09/24 13:22:05;;;;;;;;;;;24.20;60.10;;;;;;5039886;27;88270;-64
2023/09/24 13:24:32;;;;;;;;;;;24.10;60.20;;;;;;5043130;27;88665;-65
2023/09/24 13:26:57;;;;;;;;;;;24.10;60.00;;;;;;5038253;28;88638;-65
2023/09/24 13:29:24;;;;;;;;;;;24.10;59.80;;;;;;5042111;27;87088;-67
2023/09/24 13:31:50;;;;;;;;;;;24.10;59.70;;;;;;5041465;27;87435;-66
2023/09/24 13:34:16;;;;;;;;;;;24.10;59.70;;;;;;5042492;27;88226;-63
2023/09/24 13:36:42;;;;;;;;;;;24.10;60.10;;;;;;5040750;27;87428;-68
2023/09/24 13:39:10;;;;;;;;;;;24.10;60.20;;;;;;5045397;27;87771;-55
2023/09/24 13:41:36;;;;;;;;;;;24.10;61.30;;;;;;5039772;27;87353;-61
2023/09/24 13:44:01;;;;;;;;;;;24.00;62.10;;;;;;5040458;27;87860;-66
2023/09/24 13:46:27;;;;;;;;;;;24.10;61.70;;;;;;5038231;27;89088;-65
2023/09/24 13:48:57;;;;;;;;;;;24.30;60.90;;;;;;5042089;27;87118;-63
2023/09/24 13:51:23;;;;;;;;;;;24.30;60.70;;;;;;5040431;27;87255;-63
2023/09/24 13:53:49;;;;;;;;;;;24.30;60.60;;;;;;5039481;27;88104;-65
2023/09/24 13:56:15;;;;;;;;;;;24.30;60.60;;;;;;5041589;27;87118;-62
2023/09/24 13:58:41;;;;;;;;;;;24.30;60.60;;;;;;5041599;28;90031;-63
2023/09/24 14:01:07;;;;;;;;;;;24.30;60.60;;;;;;5039022;27;87254;-62
2023/09/24 14:03:32;;;;;;;;;;;24.30;60.60;;;;;;5040350;27;87603;-65
2023/09/24 14:05:59;;;;;;;;;;;24.30;60.70;;;;;;5041686;27;88550;-67
2023/09/24 14:13:53;;;;;;;;;;;24.30;60.50;;;;;;5044071;28;87222;-64
2023/09/24 14:16:19;;;;;;;;;;;24.30;60.40;;;;;;5045252;27;87168;-62
2023/09/24 14:18:45;;;;;;;;;;;24.30;60.40;;;;;;5043810;27;87136;-62
2023/09/24 14:21:11;;;;;;;;;;;24.30;60.50;;;;;;5044099;27;88174;-65